ABL8024 RKSS-RKPC
Flight info
| Callsign | ABL8024 |
|---|---|
| Flight time | N/A |
| Altitude | 26000 |
| Route | BULTI2T BULTI Y711 DOTOL DOTOL2M |
| Aircraft | A21N/M-SDE2E3FGHIRWXY/LB1 |
Departure
| Time | 2026-05-04 14:29 |
|---|---|
| Airport | Gimpo International Airport (RKSS) |
Arrival
| Time | N/A |
|---|---|
| Airport | Jeju International Airport (RKPC) |
| Time | Latitude | Longitude | Altitude | Speed | Heading |
|---|---|---|---|---|---|
| 2026-05-04 14:11 | 37.55750 | 126.79942 | 66 ft | 0 kts | 224° |
| 2026-05-04 14:19 | 37.55725 | 126.79911 | 66 ft | 8 kts | 224° |
| 2026-05-04 14:19 | 37.55667 | 126.79892 | 66 ft | 12 kts | 133° |
| 2026-05-04 14:19 | 37.55588 | 126.79985 | 66 ft | 18 kts | 137° |
| 2026-05-04 14:19 | 37.55487 | 126.80111 | 66 ft | 21 kts | 135° |
| 2026-05-04 14:20 | 37.55380 | 126.80245 | 66 ft | 22 kts | 135° |
| 2026-05-04 14:20 | 37.55269 | 126.80386 | 66 ft | 23 kts | 135° |
| 2026-05-04 14:20 | 37.55152 | 126.80531 | 66 ft | 23 kts | 135° |
| 2026-05-04 14:21 | 37.54958 | 126.80775 | 66 ft | 0 kts | 135° |
| 2026-05-04 14:21 | 37.54956 | 126.80778 | 66 ft | 1 kts | 135° |
| 2026-05-04 14:21 | 37.54933 | 126.80806 | 66 ft | 7 kts | 137° |
| 2026-05-04 14:21 | 37.54868 | 126.80802 | 66 ft | 13 kts | 227° |
| 2026-05-04 14:22 | 37.54856 | 126.80785 | 66 ft | 0 kts | 226° |
| 2026-05-04 14:23 | 37.54852 | 126.80781 | 66 ft | 0 kts | 226° |
| 2026-05-04 14:25 | 37.54850 | 126.80778 | 66 ft | 1 kts | 226° |
| 2026-05-04 14:25 | 37.54836 | 126.80759 | 66 ft | 4 kts | 226° |
| 2026-05-04 14:26 | 37.54810 | 126.80726 | 66 ft | 5 kts | 227° |
| 2026-05-04 14:26 | 37.54803 | 126.80680 | 66 ft | 6 kts | 304° |
| 2026-05-04 14:26 | 37.54832 | 126.80635 | 66 ft | 0 kts | 314° |
| 2026-05-04 14:29 | 37.55344 | 126.79989 | 67 ft | 122 kts | 315° |
| 2026-05-04 14:29 | 37.56981 | 126.77919 | 703 ft | 183 kts | 314° |
| 2026-05-04 14:30 | 37.57855 | 126.76756 | 1416 ft | 188 kts | 313° |
| 2026-05-04 14:30 | 37.58750 | 126.75545 | 2124 ft | 193 kts | 313° |
| 2026-05-04 14:30 | 37.60741 | 126.72894 | 3045 ft | 225 kts | 313° |
| 2026-05-04 14:31 | 37.61807 | 126.71334 | 3382 ft | 248 kts | 298° |
| 2026-05-04 14:31 | 37.61744 | 126.67014 | 4522 ft | 261 kts | 237° |
| 2026-05-04 14:32 | 37.59309 | 126.63652 | 5008 ft | 262 kts | 226° |
| 2026-05-04 14:32 | 37.58055 | 126.61993 | 5016 ft | 262 kts | 228° |
| 2026-05-04 14:32 | 37.56775 | 126.60346 | 5015 ft | 263 kts | 222° |
| 2026-05-04 14:32 | 37.55125 | 126.59261 | 5047 ft | 274 kts | 197° |
| 2026-05-04 14:33 | 37.53212 | 126.58997 | 5556 ft | 286 kts | 183° |
| 2026-05-04 14:33 | 37.51245 | 126.59067 | 6577 ft | 284 kts | 180° |
| 2026-05-04 14:33 | 37.49283 | 126.59193 | 7460 ft | 285 kts | 180° |
| 2026-05-04 14:33 | 37.47287 | 126.59321 | 8243 ft | 290 kts | 180° |
| 2026-05-04 14:34 | 37.45257 | 126.59441 | 9014 ft | 295 kts | 180° |
| 2026-05-04 14:34 | 37.43200 | 126.59553 | 9768 ft | 299 kts | 180° |
| 2026-05-04 14:34 | 37.41132 | 126.59659 | 10452 ft | 304 kts | 180° |
| 2026-05-04 14:34 | 37.38952 | 126.59766 | 10873 ft | 320 kts | 180° |
| 2026-05-04 14:35 | 37.36682 | 126.59875 | 11223 ft | 338 kts | 179° |
| 2026-05-04 14:35 | 37.34246 | 126.59990 | 11557 ft | 355 kts | 179° |
| 2026-05-04 14:35 | 37.31712 | 126.60111 | 11871 ft | 372 kts | 179° |
| 2026-05-04 14:35 | 37.29082 | 126.60235 | 12292 ft | 384 kts | 179° |
| 2026-05-04 14:36 | 37.26426 | 126.60361 | 12918 ft | 388 kts | 179° |
| 2026-05-04 14:36 | 37.23716 | 126.60490 | 13545 ft | 392 kts | 179° |
| 2026-05-04 14:36 | 37.20990 | 126.60622 | 14134 ft | 396 kts | 179° |
| 2026-05-04 14:36 | 37.18223 | 126.60751 | 14717 ft | 401 kts | 179° |
| 2026-05-04 14:37 | 37.15424 | 126.60881 | 15324 ft | 405 kts | 179° |
| 2026-05-04 14:37 | 37.12587 | 126.61012 | 15948 ft | 408 kts | 179° |
| 2026-05-04 14:37 | 37.09732 | 126.61146 | 16563 ft | 411 kts | 179° |
| 2026-05-04 14:37 | 37.06882 | 126.61279 | 17160 ft | 414 kts | 179° |
| 2026-05-04 14:38 | 37.04008 | 126.61414 | 17746 ft | 418 kts | 179° |
| 2026-05-04 14:38 | 37.01083 | 126.61552 | 18330 ft | 421 kts | 179° |
| 2026-05-04 14:38 | 36.98141 | 126.61694 | 18901 ft | 424 kts | 178° |
| 2026-05-04 14:38 | 36.95194 | 126.61835 | 19450 ft | 427 kts | 179° |
| 2026-05-04 14:39 | 36.92252 | 126.61975 | 19981 ft | 429 kts | 179° |
| 2026-05-04 14:39 | 36.89250 | 126.62118 | 20509 ft | 432 kts | 179° |
| 2026-05-04 14:39 | 36.86221 | 126.62260 | 21019 ft | 435 kts | 179° |
| 2026-05-04 14:40 | 36.80135 | 126.62546 | 21988 ft | 440 kts | 179° |
| 2026-05-04 14:40 | 36.77068 | 126.62689 | 22451 ft | 443 kts | 179° |
| 2026-05-04 14:40 | 36.74012 | 126.62832 | 22898 ft | 446 kts | 180° |
| 2026-05-04 14:40 | 36.70898 | 126.62978 | 23336 ft | 448 kts | 180° |
| 2026-05-04 14:41 | 36.67751 | 126.63124 | 23765 ft | 451 kts | 180° |
| 2026-05-04 14:41 | 36.64646 | 126.63268 | 24175 ft | 453 kts | 180° |
| 2026-05-04 14:41 | 36.58289 | 126.63563 | 24996 ft | 458 kts | 181° |
| 2026-05-04 14:42 | 36.51910 | 126.63858 | 25792 ft | 462 kts | 181° |
| 2026-05-04 14:42 | 36.48699 | 126.64006 | 26098 ft | 464 kts | 181° |
| 2026-05-04 14:42 | 36.45477 | 126.64155 | 26159 ft | 462 kts | 182° |
| 2026-05-04 14:43 | 36.42260 | 126.64304 | 26191 ft | 460 kts | 182° |
| 2026-05-04 14:43 | 36.39080 | 126.64450 | 26207 ft | 458 kts | 182° |
| 2026-05-04 14:43 | 36.35901 | 126.64597 | 26216 ft | 457 kts | 182° |
| 2026-05-04 14:43 | 36.32704 | 126.64744 | 26156 ft | 455 kts | 182° |
| 2026-05-04 14:44 | 36.29541 | 126.64888 | 26120 ft | 455 kts | 182° |
| 2026-05-04 14:44 | 36.26406 | 126.65031 | 26103 ft | 455 kts | 182° |
| 2026-05-04 14:44 | 36.23253 | 126.65175 | 26095 ft | 455 kts | 182° |
| 2026-05-04 14:44 | 36.20083 | 126.65320 | 26098 ft | 455 kts | 182° |
| 2026-05-04 14:45 | 36.16937 | 126.65464 | 26102 ft | 455 kts | 182° |
| 2026-05-04 14:45 | 36.13760 | 126.65610 | 26105 ft | 455 kts | 182° |
| 2026-05-04 14:45 | 36.10606 | 126.65754 | 26108 ft | 455 kts | 182° |
| 2026-05-04 14:45 | 36.07431 | 126.65899 | 26117 ft | 455 kts | 182° |
| 2026-05-04 14:46 | 36.04285 | 126.66042 | 26123 ft | 454 kts | 182° |
| 2026-05-04 14:46 | 36.01100 | 126.66188 | 26128 ft | 454 kts | 182° |
| 2026-05-04 14:46 | 35.97952 | 126.66331 | 26132 ft | 454 kts | 182° |
| 2026-05-04 14:46 | 35.94811 | 126.66476 | 26125 ft | 454 kts | 182° |
| 2026-05-04 14:47 | 35.91648 | 126.66622 | 26120 ft | 453 kts | 182° |
| 2026-05-04 14:47 | 35.88509 | 126.66767 | 26118 ft | 452 kts | 183° |
| 2026-05-04 14:47 | 35.85369 | 126.66911 | 26117 ft | 451 kts | 183° |
| 2026-05-04 14:47 | 35.82223 | 126.67054 | 26128 ft | 450 kts | 183° |
| 2026-05-04 14:48 | 35.79110 | 126.67194 | 26135 ft | 450 kts | 183° |
| 2026-05-04 14:48 | 35.75977 | 126.67335 | 26138 ft | 450 kts | 183° |
| 2026-05-04 14:48 | 35.72841 | 126.67476 | 26140 ft | 449 kts | 183° |
| 2026-05-04 14:48 | 35.69708 | 126.67617 | 26140 ft | 449 kts | 183° |
| 2026-05-04 14:49 | 35.66611 | 126.67757 | 26139 ft | 449 kts | 183° |
| 2026-05-04 14:49 | 35.63474 | 126.67899 | 26138 ft | 449 kts | 183° |
| 2026-05-04 14:49 | 35.60379 | 126.68038 | 26138 ft | 449 kts | 183° |
| 2026-05-04 14:49 | 35.57234 | 126.68181 | 26136 ft | 449 kts | 183° |
| 2026-05-04 14:50 | 35.54142 | 126.68321 | 26135 ft | 449 kts | 183° |
| 2026-05-04 14:50 | 35.51030 | 126.68462 | 26134 ft | 449 kts | 183° |
| 2026-05-04 14:50 | 35.47890 | 126.68604 | 26133 ft | 449 kts | 183° |
| 2026-05-04 14:50 | 35.44793 | 126.68745 | 26132 ft | 449 kts | 183° |
| 2026-05-04 14:51 | 35.41650 | 126.68886 | 26132 ft | 448 kts | 183° |
| 2026-05-04 14:51 | 35.38524 | 126.69027 | 26132 ft | 448 kts | 183° |
| 2026-05-04 14:51 | 35.35442 | 126.69165 | 26131 ft | 448 kts | 183° |
| 2026-05-04 14:51 | 35.32313 | 126.69305 | 26131 ft | 447 kts | 183° |
| 2026-05-04 14:52 | 35.29204 | 126.69444 | 26131 ft | 448 kts | 183° |
| 2026-05-04 14:52 | 35.26109 | 126.69582 | 26131 ft | 448 kts | 184° |
| 2026-05-04 14:52 | 35.22965 | 126.69722 | 26131 ft | 447 kts | 184° |
| 2026-05-04 14:52 | 35.19884 | 126.69859 | 26132 ft | 447 kts | 184° |
| 2026-05-04 14:53 | 35.16759 | 126.69999 | 26132 ft | 447 kts | 184° |
| 2026-05-04 14:53 | 35.13656 | 126.70071 | 26133 ft | 445 kts | 186° |
| 2026-05-04 14:53 | 35.10572 | 126.69961 | 26135 ft | 443 kts | 189° |
| 2026-05-04 14:53 | 35.07495 | 126.69670 | 26137 ft | 441 kts | 191° |
| 2026-05-04 14:54 | 35.04462 | 126.69349 | 26138 ft | 441 kts | 191° |
| 2026-05-04 14:54 | 35.01398 | 126.69024 | 26139 ft | 441 kts | 191° |
| 2026-05-04 14:54 | 34.98343 | 126.68700 | 26140 ft | 440 kts | 191° |
| 2026-05-04 14:54 | 34.95307 | 126.68378 | 26141 ft | 440 kts | 191° |
| 2026-05-04 14:55 | 34.92253 | 126.68054 | 26141 ft | 440 kts | 191° |
| 2026-05-04 14:55 | 34.89203 | 126.67731 | 26055 ft | 440 kts | 191° |
| 2026-05-04 14:55 | 34.86150 | 126.67409 | 25655 ft | 438 kts | 191° |
| 2026-05-04 14:55 | 34.83110 | 126.67088 | 25062 ft | 437 kts | 191° |
| 2026-05-04 14:56 | 34.80077 | 126.66767 | 24401 ft | 439 kts | 191° |
| 2026-05-04 14:56 | 34.77038 | 126.66445 | 23728 ft | 439 kts | 191° |
| 2026-05-04 14:56 | 34.74024 | 126.66127 | 23173 ft | 436 kts | 191° |
| 2026-05-04 14:56 | 34.71003 | 126.65810 | 22547 ft | 431 kts | 191° |
| 2026-05-04 14:57 | 34.68053 | 126.65498 | 21877 ft | 428 kts | 190° |
| 2026-05-04 14:57 | 34.65097 | 126.65183 | 21192 ft | 426 kts | 190° |
| 2026-05-04 14:57 | 34.62127 | 126.64868 | 20512 ft | 424 kts | 190° |
| 2026-05-04 14:57 | 34.59217 | 126.64562 | 19864 ft | 421 kts | 189° |
| 2026-05-04 14:58 | 34.56313 | 126.64256 | 19230 ft | 419 kts | 189° |
| 2026-05-04 14:58 | 34.53404 | 126.63951 | 18602 ft | 416 kts | 189° |
| 2026-05-04 14:58 | 34.50566 | 126.63653 | 17920 ft | 415 kts | 189° |
| 2026-05-04 14:58 | 34.47683 | 126.63351 | 17299 ft | 412 kts | 189° |
| 2026-05-04 14:59 | 34.44846 | 126.63056 | 16715 ft | 409 kts | 189° |
| 2026-05-04 14:59 | 34.42030 | 126.62762 | 16146 ft | 405 kts | 189° |
| 2026-05-04 14:59 | 34.36451 | 126.62181 | 15020 ft | 398 kts | 189° |
| 2026-05-04 15:00 | 34.33722 | 126.61895 | 14481 ft | 393 kts | 189° |
| 2026-05-04 15:00 | 34.31007 | 126.61613 | 13952 ft | 388 kts | 189° |
| 2026-05-04 15:00 | 34.28357 | 126.61337 | 13438 ft | 384 kts | 188° |
| 2026-05-04 15:01 | 34.23038 | 126.61610 | 12435 ft | 383 kts | 174° |
| 2026-05-04 15:01 | 34.20426 | 126.62213 | 11904 ft | 381 kts | 171° |
| 2026-05-04 15:01 | 34.17830 | 126.62872 | 11333 ft | 380 kts | 171° |
| 2026-05-04 15:01 | 34.15269 | 126.63532 | 10833 ft | 375 kts | 171° |
| 2026-05-04 15:02 | 34.12748 | 126.64175 | 10459 ft | 367 kts | 171° |
| 2026-05-04 15:02 | 34.10287 | 126.64793 | 10287 ft | 353 kts | 171° |
| 2026-05-04 15:02 | 34.07914 | 126.65388 | 10178 ft | 338 kts | 171° |
| 2026-05-04 15:02 | 34.05682 | 126.65946 | 10072 ft | 324 kts | 170° |
| 2026-05-04 15:03 | 34.03517 | 126.66487 | 9985 ft | 309 kts | 170° |
| 2026-05-04 15:03 | 34.01431 | 126.67008 | 9757 ft | 301 kts | 170° |
| 2026-05-04 15:03 | 33.99401 | 126.67513 | 9384 ft | 299 kts | 170° |
| 2026-05-04 15:03 | 33.97363 | 126.68021 | 9042 ft | 296 kts | 169° |
| 2026-05-04 15:04 | 33.95339 | 126.68525 | 8700 ft | 294 kts | 169° |
| 2026-05-04 15:04 | 33.93361 | 126.69018 | 8365 ft | 291 kts | 169° |
| 2026-05-04 15:04 | 33.91374 | 126.69513 | 8028 ft | 289 kts | 169° |
| 2026-05-04 15:04 | 33.89423 | 126.69998 | 7697 ft | 287 kts | 169° |
| 2026-05-04 15:05 | 33.87461 | 126.70487 | 7361 ft | 284 kts | 169° |
| 2026-05-04 15:05 | 33.85550 | 126.70963 | 7032 ft | 280 kts | 169° |
| 2026-05-04 15:05 | 33.83639 | 126.71437 | 6702 ft | 278 kts | 168° |
| 2026-05-04 15:05 | 33.81770 | 126.71907 | 6379 ft | 275 kts | 168° |
| 2026-05-04 15:06 | 33.79886 | 126.72379 | 6051 ft | 273 kts | 168° |
| 2026-05-04 15:06 | 33.78035 | 126.72842 | 5728 ft | 271 kts | 168° |
| 2026-05-04 15:06 | 33.76183 | 126.73304 | 5243 ft | 275 kts | 169° |
| 2026-05-04 15:07 | 33.72428 | 126.74232 | 4408 ft | 275 kts | 169° |
| 2026-05-04 15:07 | 33.70562 | 126.74694 | 4072 ft | 272 kts | 169° |
| 2026-05-04 15:07 | 33.68704 | 126.75154 | 4003 ft | 271 kts | 169° |
| 2026-05-04 15:07 | 33.66914 | 126.75696 | 3980 ft | 256 kts | 156° |
| 2026-05-04 15:08 | 33.65550 | 126.76948 | 3985 ft | 250 kts | 124° |
| 2026-05-04 15:08 | 33.64893 | 126.78863 | 3994 ft | 248 kts | 92° |
| 2026-05-04 15:08 | 33.65110 | 126.80848 | 3995 ft | 242 kts | 62° |
| 2026-05-04 15:08 | 33.66154 | 126.82371 | 4000 ft | 235 kts | 29° |
| 2026-05-04 15:09 | 33.67672 | 126.82984 | 4001 ft | 229 kts | 359° |
| 2026-05-04 15:09 | 33.69209 | 126.82584 | 4003 ft | 227 kts | 330° |
| 2026-05-04 15:09 | 33.70358 | 126.81336 | 4001 ft | 228 kts | 302° |
| 2026-05-04 15:10 | 33.70493 | 126.77641 | 4001 ft | 238 kts | 243° |
| 2026-05-04 15:10 | 33.69344 | 126.76202 | 3999 ft | 245 kts | 211° |
| 2026-05-04 15:10 | 33.65935 | 126.75873 | 4004 ft | 251 kts | 182° |
| 2026-05-04 15:11 | 33.64301 | 126.75330 | 3983 ft | 244 kts | 220° |
| 2026-05-04 15:11 | 33.63258 | 126.73792 | 4008 ft | 238 kts | 246° |
| 2026-05-04 15:11 | 33.62581 | 126.71999 | 4007 ft | 237 kts | 250° |
| 2026-05-04 15:11 | 33.61877 | 126.70205 | 3930 ft | 238 kts | 246° |
| 2026-05-04 15:12 | 33.61077 | 126.68449 | 3659 ft | 238 kts | 244° |
| 2026-05-04 15:12 | 33.60242 | 126.66757 | 3346 ft | 237 kts | 242° |
| 2026-05-04 15:12 | 33.59378 | 126.65081 | 3032 ft | 235 kts | 242° |
| 2026-05-04 15:12 | 33.58516 | 126.63422 | 2728 ft | 233 kts | 242° |
| 2026-05-04 15:13 | 33.57676 | 126.61797 | 2432 ft | 231 kts | 242° |
| 2026-05-04 15:13 | 33.56832 | 126.60156 | 2130 ft | 229 kts | 242° |
| 2026-05-04 15:13 | 33.56004 | 126.58548 | 1816 ft | 224 kts | 243° |
| 2026-05-04 15:13 | 33.55225 | 126.57040 | 1619 ft | 199 kts | 242° |
| 2026-05-04 15:14 | 33.54524 | 126.55679 | 1313 ft | 187 kts | 242° |
| 2026-05-04 15:14 | 33.53873 | 126.54409 | 1081 ft | 171 kts | 242° |
| 2026-05-04 15:14 | 33.53276 | 126.53247 | 820 ft | 157 kts | 241° |
| 2026-05-04 15:14 | 33.52729 | 126.52187 | 594 ft | 141 kts | 240° |
| 2026-05-04 15:15 | 33.52225 | 126.51213 | 405 ft | 138 kts | 240° |
| 2026-05-04 15:15 | 33.51721 | 126.50221 | 273 ft | 138 kts | 239° |
| 2026-05-04 15:15 | 33.51221 | 126.49248 | 127 ft | 132 kts | 238° |